Time;durP1;ratioP1;P1;durP2;ratioP2;P2;SDS_P1;SDS_P2;PMS_P1;PMS_P2;Temp;Humidity;BMP_temperature;BMP_pressure;BME280_temperature;BME280_humidity;BME280_pressure;Samples;Min_cycle;Max_cycle;Signal;HPM_P1;HPM_P2
2023/11/03 00:00:12;;;;;;;3.83;3.45;;;12.50;99.90;;;;;;5004811;28;20048;-69
2023/11/03 00:02:39;;;;;;;7.65;4.07;;;12.50;99.90;;;;;;5004815;28;20030;-70
2023/11/03 00:05:11;;;;;;;5.47;3.92;;;12.50;99.90;;;;;;5004736;28;20073;-70
2023/11/03 00:07:41;;;;;;;9.45;4.65;;;12.50;99.90;;;;;;4998439;28;20030;-70
2023/11/03 00:10:09;;;;;;;6.72;3.83;;;12.50;99.90;;;;;;4999974;28;20034;-70
2023/11/03 00:12:36;;;;;;;8.48;5.22;;;12.40;99.90;;;;;;5002145;28;20123;-70
2023/11/03 00:15:03;;;;;;;6.75;4.03;;;12.40;99.90;;;;;;5004587;28;20494;-70
2023/11/03 00:17:29;;;;;;;4.55;3.33;;;12.40;99.90;;;;;;5000203;28;20030;-69
2023/11/03 00:19:55;;;;;;;6.50;4.50;;;12.30;99.90;;;;;;5004770;28;20874;-70
2023/11/03 00:22:21;;;;;;;5.22;3.90;;;12.30;99.90;;;;;;5004537;28;20034;-70
2023/11/03 00:24:46;;;;;;;6.93;3.95;;;12.30;99.90;;;;;;5004250;28;20517;-70
2023/11/03 00:27:14;;;;;;;4.47;3.70;;;12.30;99.90;;;;;;5005050;28;20073;-69
2023/11/03 00:29:41;;;;;;;7.63;3.88;;;12.40;99.90;;;;;;5004650;28;20042;-70
2023/11/03 00:32:07;;;;;;;6.97;4.05;;;12.40;99.90;;;;;;5003228;28;20033;-70
2023/11/03 00:34:32;;;;;;;5.57;4.00;;;12.30;99.90;;;;;;5004427;28;20665;-70
2023/11/03 00:36:59;;;;;;;4.18;2.88;;;12.30;99.90;;;;;;4999111;28;20060;-69
2023/11/03 00:39:25;;;;;;;4.65;3.20;;;12.20;99.90;;;;;;5003807;28;20092;-70
2023/11/03 00:41:51;;;;;;;4.07;3.00;;;12.10;99.90;;;;;;5003210;28;20038;-70
2023/11/03 00:44:18;;;;;;;5.20;3.67;;;12.20;99.90;;;;;;5033205;28;20038;-70
2023/11/03 00:46:44;;;;;;;4.47;2.55;;;12.10;99.90;;;;;;5002908;28;20030;-70
2023/11/03 00:49:12;;;;;;;4.55;3.30;;;12.10;99.90;;;;;;5019702;28;20584;-70
2023/11/03 00:51:38;;;;;;;3.70;2.88;;;12.20;99.90;;;;;;5004424;28;20034;-70
2023/11/03 00:54:05;;;;;;;4.20;2.83;;;12.20;99.90;;;;;;5002574;28;20038;-70
2023/11/03 00:56:39;;;;;;;5.18;3.08;;;12.30;99.90;;;;;;5037336;28;20439;-70
2023/11/03 00:59:07;;;;;;;4.53;3.00;;;12.20;99.90;;;;;;5002734;28;20034;-70
2023/11/03 01:01:34;;;;;;;4.72;2.65;;;12.10;99.90;;;;;;5004441;28;20034;-70
2023/11/03 01:04:00;;;;;;;3.47;2.50;;;12.10;99.90;;;;;;5007886;28;20040;-70
2023/11/03 01:06:26;;;;;;;5.50;2.45;;;12.10;99.90;;;;;;5005615;28;20076;-70
2023/11/03 01:08:51;;;;;;;5.30;2.88;;;12.10;99.90;;;;;;5006497;28;20065;-69
2023/11/03 01:11:19;;;;;;;4.20;2.92;;;12.20;99.90;;;;;;5007493;28;20069;-69
2023/11/03 01:13:45;;;;;;;4.53;2.60;;;12.10;99.90;;;;;;5007738;28;20038;-69
2023/11/03 01:16:11;;;;;;;3.40;3.03;;;12.10;99.90;;;;;;5006040;28;20425;-70
2023/11/03 01:18:42;;;;;;;4.78;3.00;;;12.20;99.90;;;;;;5005065;28;20034;-70
2023/11/03 01:21:15;;;;;;;5.03;2.58;;;12.20;99.90;;;;;;5007310;28;20040;-70
2023/11/03 01:23:47;;;;;;;6.47;2.40;;;12.20;99.90;;;;;;5004574;28;20247;-69
2023/11/03 01:26:13;;;;;;;5.63;2.50;;;12.20;99.90;;;;;;5006176;28;20057;-70
2023/11/03 01:28:40;;;;;;;2.97;2.40;;;12.10;99.90;;;;;;5002235;28;20490;-70
2023/11/03 01:31:10;;;;;;;4.00;2.60;;;12.10;99.90;;;;;;5002114;28;20064;-70
2023/11/03 01:33:36;;;;;;;3.60;2.28;;;12.10;99.90;;;;;;5006706;28;20069;-70
2023/11/03 01:36:05;;;;;;;3.83;2.58;;;12.20;99.90;;;;;;5007192;28;20026;-70
2023/11/03 01:38:31;;;;;;;3.25;2.42;;;12.10;99.90;;;;;;5006943;28;20292;-70
2023/11/03 01:41:00;;;;;;;7.18;2.53;;;12.20;99.90;;;;;;5007224;28;20037;-70
2023/11/03 01:43:30;;;;;;;2.83;2.25;;;12.20;99.90;;;;;;5006994;28;20044;-70
2023/11/03 01:45:56;;;;;;;4.57;2.33;;;12.20;99.90;;;;;;5001152;28;20453;-70
2023/11/03 01:48:24;;;;;;;4.85;2.72;;;12.20;99.90;;;;;;5002534;28;20036;-70
2023/11/03 01:50:50;;;;;;;3.55;2.60;;;12.20;99.90;;;;;;5005371;28;20475;-70
2023/11/03 01:53:17;;;;;;;3.88;2.60;;;12.10;99.90;;;;;;5005224;28;20103;-69
2023/11/03 01:55:44;;;;;;;2.78;1.92;;;12.20;99.90;;;;;;5006711;28;20057;-70
2023/11/03 01:58:11;;;;;;;4.32;2.40;;;12.20;99.90;;;;;;5017056;28;20380;-70
2023/11/03 02:00:37;;;;;;;3.97;2.00;;;12.10;99.90;;;;;;5005194;28;20034;-70
2023/11/03 02:03:03;;;;;;;3.33;2.33;;;12.20;99.90;;;;;;5005093;28;20034;-71
2023/11/03 02:05:29;;;;;;;2.90;2.17;;;12.10;99.90;;;;;;5003081;28;20029;-69
2023/11/03 02:07:55;;;;;;;3.90;2.25;;;12.10;99.90;;;;;;5005741;28;20026;-70
2023/11/03 02:10:21;;;;;;;4.90;2.42;;;12.10;99.90;;;;;;5004665;28;20145;-70
2023/11/03 02:12:46;;;;;;;3.25;2.42;;;12.10;99.90;;;;;;5003060;28;20037;-70
2023/11/03 02:15:13;;;;;;;2.60;2.40;;;12.10;99.90;;;;;;5006361;28;20030;-70
2023/11/03 02:17:40;;;;;;;2.25;1.92;;;12.10;99.90;;;;;;5003426;28;20540;-70
2023/11/03 02:20:07;;;;;;;2.67;1.90;;;12.10;99.90;;;;;;5006178;28;20060;-70
2023/11/03 02:22:34;;;;;;;3.28;1.90;;;12.20;99.90;;;;;;5006246;28;20026;-70
2023/11/03 02:25:00;;;;;;;5.22;2.22;;;12.20;99.90;;;;;;5006332;28;20044;-69
2023/11/03 02:27:26;;;;;;;2.75;2.00;;;12.10;99.90;;;;;;5004816;28;20037;-69
2023/11/03 02:29:52;;;;;;;2.03;1.80;;;12.00;99.90;;;;;;5004455;28;20052;-69
2023/11/03 02:32:18;;;;;;;4.30;2.20;;;12.00;99.90;;;;;;5005201;28;20026;-69
2023/11/03 02:34:44;;;;;;;4.25;2.03;;;11.90;99.90;;;;;;5002380;28;20040;-69
2023/11/03 02:37:09;;;;;;;3.95;2.15;;;12.00;99.90;;;;;;5004580;28;20160;-69
2023/11/03 02:39:37;;;;;;;3.65;2.10;;;11.90;99.90;;;;;;5006287;28;20018;-70
2023/11/03 02:42:06;;;;;;;4.35;2.20;;;11.90;99.90;;;;;;5005839;28;20553;-69
2023/11/03 02:44:32;;;;;;;5.32;2.33;;;11.90;99.90;;;;;;5002605;28;20030;-69
2023/11/03 02:46:59;;;;;;;6.22;2.20;;;12.00;99.90;;;;;;5004608;28;20080;-69
2023/11/03 02:49:25;;;;;;;4.95;2.45;;;11.90;99.90;;;;;;5005892;28;20521;-69
2023/11/03 02:51:51;;;;;;;7.20;2.30;;;11.80;99.90;;;;;;5005226;28;20153;-69
2023/11/03 02:54:17;;;;;;;2.05;1.80;;;11.80;99.90;;;;;;5004296;28;20153;-69
2023/11/03 02:56:42;;;;;;;2.95;1.55;;;11.90;99.90;;;;;;5005020;28;20041;-69
2023/11/03 02:59:08;;;;;;;3.03;2.10;;;11.90;99.90;;;;;;5003850;28;20025;-70
2023/11/03 03:01:39;;;;;;;4.95;1.90;;;11.90;99.90;;;;;;5003750;28;20090;-69
2023/11/03 03:04:06;;;;;;;3.38;1.73;;;11.90;99.90;;;;;;5003709;28;20034;-69
2023/11/03 03:06:33;;;;;;;2.40;2.05;;;11.80;99.90;;;;;;5005282;28;20049;-70
2023/11/03 03:08:59;;;;;;;4.15;2.17;;;11.80;99.90;;;;;;5005432;28;20707;-69
2023/11/03 03:11:25;;;;;;;2.03;1.55;;;11.80;99.90;;;;;;5036884;28;20033;-69
2023/11/03 03:13:50;;;;;;;4.55;1.80;;;11.70;99.90;;;;;;5003686;28;20569;-69
2023/11/03 03:16:17;;;;;;;4.85;2.03;;;11.80;99.90;;;;;;5004091;28;20072;-69
2023/11/03 03:18:42;;;;;;;4.13;1.90;;;11.70;99.90;;;;;;5016262;28;20037;-69
2023/11/03 03:21:08;;;;;;;3.03;2.15;;;11.70;99.90;;;;;;5003701;28;20033;-69
2023/11/03 03:23:34;;;;;;;4.32;1.60;;;11.70;99.90;;;;;;5005062;28;20030;-70
2023/11/03 03:26:00;;;;;;;1.75;1.52;;;11.70;99.90;;;;;;5003907;28;20494;-69
2023/11/03 03:28:25;;;;;;;3.55;2.05;;;11.70;99.90;;;;;;5003952;28;20363;-69
2023/11/03 03:30:51;;;;;;;2.22;1.50;;;11.70;99.90;;;;;;5003470;28;20046;-69
2023/11/03 03:33:18;;;;;;;3.00;1.70;;;11.70;99.90;;;;;;5001493;28;20092;-70
2023/11/03 03:35:44;;;;;;;3.15;1.60;;;11.70;99.90;;;;;;5005086;28;20746;-70
2023/11/03 03:38:10;;;;;;;2.78;1.40;;;11.80;99.90;;;;;;5003670;28;20033;-69
2023/11/03 03:40:35;;;;;;;3.38;1.70;;;11.70;99.90;;;;;;5005083;28;20121;-69
2023/11/03 03:43:01;;;;;;;2.15;1.70;;;11.70;99.90;;;;;;5036152;28;20026;-69
2023/11/03 03:45:28;;;;;;;3.05;1.70;;;11.70;99.90;;;;;;5005040;28;20058;-69
2023/11/03 03:47:54;;;;;;;4.28;1.75;;;11.70;99.90;;;;;;5004868;28;20033;-70
2023/11/03 03:50:20;;;;;;;3.15;2.15;;;11.60;99.90;;;;;;5004722;28;20395;-70
2023/11/03 03:52:46;;;;;;;4.78;2.13;;;11.60;99.90;;;;;;4995215;28;20113;-69
2023/11/03 03:55:12;;;;;;;3.92;1.85;;;11.60;99.90;;;;;;5004605;28;20417;-69
2023/11/03 03:57:38;;;;;;;3.05;1.30;;;11.60;99.90;;;;;;5000499;28;20030;-69
2023/11/03 04:00:05;;;;;;;4.82;1.83;;;11.60;99.90;;;;;;5000703;28;20746;-69
2023/11/03 04:02:31;;;;;;;2.60;1.60;;;11.60;99.90;;;;;;5001400;28;20038;-70
2023/11/03 04:04:57;;;;;;;1.55;1.40;;;11.70;99.90;;;;;;5001210;28;20171;-69
2023/11/03 04:07:23;;;;;;;3.30;1.33;;;11.70;99.90;;;;;;4997028;28;20490;-70
2023/11/03 04:09:49;;;;;;;1.92;1.33;;;11.60;99.90;;;;;;5004566;28;20034;-69
2023/11/03 04:12:15;;;;;;;5.43;1.75;;;11.60;99.90;;;;;;5004378;28;20045;-69
2023/11/03 04:14:40;;;;;;;3.95;1.70;;;11.70;99.90;;;;;;5004621;28;20037;-70
2023/11/03 04:17:07;;;;;;;4.80;1.40;;;11.70;99.90;;;;;;5004627;28;20840;-69
2023/11/03 04:19:33;;;;;;;3.60;1.50;;;11.60;99.90;;;;;;5004135;28;20045;-69
2023/11/03 04:21:59;;;;;;;4.03;1.60;;;11.60;99.90;;;;;;5001280;28;20061;-69
2023/11/03 04:24:25;;;;;;;4.05;1.30;;;11.60;99.90;;;;;;5004477;28;20034;-69
2023/11/03 04:26:50;;;;;;;2.92;1.52;;;11.60;99.90;;;;;;5004742;28;20057;-69
2023/11/03 04:29:18;;;;;;;2.00;1.73;;;11.60;99.90;;;;;;5004564;28;20034;-69
2023/11/03 04:31:45;;;;;;;2.47;1.38;;;11.60;99.90;;;;;;5003043;28;20050;-69
2023/11/03 04:34:11;;;;;;;2.78;1.40;;;11.60;99.90;;;;;;5007758;28;20084;-69
2023/11/03 04:36:37;;;;;;;5.10;1.40;;;11.60;99.90;;;;;;5008114;28;20034;-69
2023/11/03 04:39:03;;;;;;;2.42;1.27;;;11.50;99.90;;;;;;5007659;28;20044;-69
2023/11/03 04:41:29;;;;;;;4.50;0.90;;;11.60;99.90;;;;;;5008183;28;20493;-69
2023/11/03 04:43:54;;;;;;;2.70;1.27;;;11.50;99.90;;;;;;5003907;28;20045;-69
2023/11/03 04:46:20;;;;;;;1.52;1.27;;;11.50;99.90;;;;;;5006315;28;20176;-69
2023/11/03 04:48:46;;;;;;;2.72;1.25;;;11.50;99.90;;;;;;5002724;28;20672;-69
2023/11/03 04:51:13;;;;;;;3.88;1.45;;;11.40;99.90;;;;;;5005394;28;20913;-69
2023/11/03 04:53:39;;;;;;;2.35;1.02;;;11.40;99.90;;;;;;5003636;28;20128;-69
2023/11/03 04:56:05;;;;;;;2.83;1.48;;;11.40;99.90;;;;;;5008107;28;20034;-70
2023/11/03 04:58:31;;;;;;;3.28;1.05;;;11.40;99.90;;;;;;5007931;28;20852;-69
2023/11/03 05:00:57;;;;;;;5.60;0.93;;;11.40;99.90;;;;;;5007904;28;20030;-69
2023/11/03 05:03:22;;;;;;;1.52;0.93;;;11.30;99.90;;;;;;5007933;28;20620;-69
2023/11/03 05:05:48;;;;;;;1.38;1.00;;;11.30;99.90;;;;;;5007977;28;20045;-69
2023/11/03 05:08:14;;;;;;;2.03;1.08;;;11.30;99.90;;;;;;5007890;28;20045;-69
2023/11/03 05:10:41;;;;;;;1.65;0.85;;;11.20;99.90;;;;;;5007740;28;20057;-69
2023/11/03 05:13:06;;;;;;;4.10;1.10;;;11.20;99.90;;;;;;5007536;28;20037;-69
2023/11/03 05:15:32;;;;;;;5.88;0.80;;;11.10;99.90;;;;;;5007399;28;20026;-70
2023/11/03 05:17:59;;;;;;;3.00;0.65;;;11.10;99.90;;;;;;5006078;28;20030;-69
2023/11/03 05:20:25;;;;;;;4.97;0.80;;;11.10;99.90;;;;;;5004371;28;20464;-69
2023/11/03 05:22:51;;;;;;;3.42;0.90;;;11.10;99.90;;;;;;5007525;28;20108;-69
2023/11/03 05:25:17;;;;;;;2.95;1.10;;;11.00;99.90;;;;;;5007405;28;20030;-70
2023/11/03 05:27:42;;;;;;;1.58;0.68;;;11.00;99.90;;;;;;5007540;28;20068;-69
2023/11/03 05:30:09;;;;;;;3.67;0.68;;;11.00;99.90;;;;;;5006923;28;20077;-69
2023/11/03 05:32:35;;;;;;;4.03;0.95;;;11.10;99.90;;;;;;5005803;28;20085;-69
2023/11/03 05:35:01;;;;;;;4.57;0.88;;;11.00;99.90;;;;;;5007070;28;20041;-70
2023/11/03 05:37:27;;;;;;;6.25;0.75;;;10.80;99.90;;;;;;5007272;28;20034;-69
2023/11/03 05:39:53;;;;;;;2.53;1.15;;;10.80;99.90;;;;;;5007093;28;20037;-69
2023/11/03 05:42:19;;;;;;;3.05;0.90;;;10.90;99.90;;;;;;5006115;28;20030;-70
2023/11/03 05:44:44;;;;;;;1.38;0.80;;;10.90;99.90;;;;;;5006943;28;20061;-70
2023/11/03 05:47:11;;;;;;;3.28;0.73;;;10.90;99.90;;;;;;5007094;28;20487;-69
2023/11/03 05:49:36;;;;;;;3.45;0.93;;;11.00;99.90;;;;;;5005852;28;20049;-69
2023/11/03 05:52:02;;;;;;;3.45;1.58;;;10.90;99.90;;;;;;5006670;28;20042;-69
2023/11/03 05:54:29;;;;;;;8.10;1.02;;;10.80;99.90;;;;;;5005181;28;20041;-70
2023/11/03 05:56:55;;;;;;;4.18;0.73;;;10.70;99.90;;;;;;5007226;28;20083;-69
2023/11/03 05:59:21;;;;;;;7.25;0.80;;;10.80;99.90;;;;;;5006690;28;20033;-69
2023/11/03 06:01:47;;;;;;;1.48;0.77;;;10.70;99.90;;;;;;5006704;28;20054;-70
2023/11/03 06:04:13;;;;;;;4.82;0.80;;;10.80;99.90;;;;;;5006669;28;20041;-70
2023/11/03 06:06:38;;;;;;;4.97;0.93;;;10.90;99.90;;;;;;5006447;28;20510;-70
2023/11/03 06:09:05;;;;;;;4.63;0.85;;;10.90;99.90;;;;;;5006351;28;20454;-70
2023/11/03 06:11:31;;;;;;;1.92;0.80;;;10.90;99.90;;;;;;5004316;28;20041;-69
2023/11/03 06:13:57;;;;;;;2.80;0.70;;;10.90;99.90;;;;;;5005324;28;20038;-70
2023/11/03 06:16:23;;;;;;;2.85;0.60;;;10.90;99.90;;;;;;5005341;28;20068;-69
2023/11/03 06:18:49;;;;;;;5.97;0.93;;;11.00;99.90;;;;;;5002265;28;20030;-70
2023/11/03 06:21:15;;;;;;;2.45;1.00;;;11.00;99.90;;;;;;5006427;28;20037;-70
2023/11/03 06:23:41;;;;;;;4.75;0.75;;;11.00;99.90;;;;;;5002771;28;20104;-70
2023/11/03 06:26:07;;;;;;;3.92;1.00;;;11.00;99.90;;;;;;5001158;28;20827;-69
2023/11/03 06:28:33;;;;;;;2.72;1.23;;;11.00;99.90;;;;;;5006370;28;20116;-69
2023/11/03 06:30:59;;;;;;;4.43;0.88;;;11.00;99.90;;;;;;4996339;28;20049;-67
2023/11/03 06:33:24;;;;;;;4.45;0.85;;;10.90;99.90;;;;;;5001002;28;20073;-71
2023/11/03 06:35:50;;;;;;;1.35;0.70;;;10.90;99.90;;;;;;5004976;28;20037;-70
2023/11/03 06:38:17;;;;;;;6.43;0.70;;;10.90;99.90;;;;;;5005961;28;20037;-70
2023/11/03 06:40:43;;;;;;;3.47;1.00;;;11.00;99.90;;;;;;5006044;28;20042;-70
2023/11/03 06:43:09;;;;;;;3.83;1.17;;;10.90;99.90;;;;;;5005908;28;20036;-70
2023/11/03 06:45:34;;;;;;;4.35;1.25;;;10.90;99.90;;;;;;5005954;28;20421;-70
2023/11/03 06:48:00;;;;;;;3.70;1.00;;;10.90;99.90;;;;;;5002162;28;20045;-70
2023/11/03 06:50:27;;;;;;;5.38;1.00;;;10.90;99.90;;;;;;5005726;28;20034;-70
2023/11/03 06:52:54;;;;;;;2.80;1.05;;;10.90;99.90;;;;;;5005573;28;20065;-69
2023/11/03 06:55:21;;;;;;;2.75;0.70;;;10.90;99.90;;;;;;5005270;28;20029;-69
2023/11/03 06:57:50;;;;;;;3.17;0.70;;;10.90;99.90;;;;;;5005523;28;20585;-70
2023/11/03 07:00:18;;;;;;;3.17;0.65;;;11.00;99.90;;;;;;5005414;28;20026;-69
2023/11/03 07:02:44;;;;;;;3.15;0.70;;;11.00;99.90;;;;;;5005082;28;20038;-70
2023/11/03 07:05:09;;;;;;;2.40;0.60;;;11.00;99.90;;;;;;5005632;28;20084;-69
2023/11/03 07:07:36;;;;;;;3.97;0.90;;;11.10;99.90;;;;;;5005267;28;20627;-69
2023/11/03 07:10:03;;;;;;;2.35;0.40;;;11.10;99.90;;;;;;5005557;28;20030;-69
2023/11/03 07:12:30;;;;;;;3.10;0.88;;;11.10;99.90;;;;;;5005371;28;20426;-70
2023/11/03 07:14:56;;;;;;;3.97;0.95;;;11.20;99.90;;;;;;5005279;28;20048;-70
2023/11/03 07:17:22;;;;;;;3.63;0.70;;;11.20;99.70;;;;;;5003414;28;20025;-70
2023/11/03 07:19:47;;;;;;;2.72;1.02;;;11.30;99.90;;;;;;5005195;28;20030;-70
2023/11/03 07:22:15;;;;;;;1.95;0.70;;;11.30;99.90;;;;;;5005797;28;20042;-70
2023/11/03 07:24:42;;;;;;;5.40;1.02;;;11.30;99.90;;;;;;5004960;28;20087;-70
2023/11/03 07:27:08;;;;;;;3.42;0.93;;;11.40;99.90;;;;;;5003666;28;20585;-69
2023/11/03 07:29:35;;;;;;;2.92;0.82;;;11.40;99.40;;;;;;5000976;28;20044;-71
2023/11/03 07:32:01;;;;;;;2.50;0.70;;;11.30;99.20;;;;;;5003285;28;20045;-70
2023/11/03 07:34:27;;;;;;;3.60;1.05;;;11.30;99.40;;;;;;4998322;28;20080;-69
2023/11/03 07:36:52;;;;;;;3.00;0.90;;;11.20;99.70;;;;;;5005218;28;20042;-69
2023/11/03 07:39:18;;;;;;;3.63;0.82;;;11.20;99.90;;;;;;4994298;28;20034;-70
2023/11/03 07:41:44;;;;;;;2.25;0.70;;;11.30;99.90;;;;;;4999592;28;20017;-70
2023/11/03 07:44:12;;;;;;;3.08;0.80;;;11.20;99.90;;;;;;4996044;28;20041;-70
2023/11/03 07:46:38;;;;;;;1.00;0.50;;;11.20;99.90;;;;;;5003686;28;20088;-70
2023/11/03 07:49:04;;;;;;;3.47;0.77;;;11.20;99.90;;;;;;5003971;28;20029;-70
2023/11/03 07:51:30;;;;;;;0.52;0.40;;;11.10;99.90;;;;;;5000199;28;20040;-69
2023/11/03 07:53:56;;;;;;;4.53;1.08;;;11.10;99.90;;;;;;5003562;28;20133;-70
2023/11/03 07:56:22;;;;;;;3.47;0.60;;;11.10;99.90;;;;;;5003834;28;20034;-68
2023/11/03 07:58:48;;;;;;;1.15;0.65;;;11.10;99.90;;;;;;5004330;28;20030;-68
2023/11/03 08:01:14;;;;;;;2.22;0.70;;;11.00;99.90;;;;;;5000656;28;20104;-69
2023/11/03 08:03:41;;;;;;;5.07;1.02;;;11.10;99.90;;;;;;5003853;28;20048;-69
2023/11/03 08:06:07;;;;;;;6.00;0.90;;;11.10;99.90;;;;;;5006115;28;20808;-69
2023/11/03 08:08:33;;;;;;;4.47;0.75;;;11.20;99.90;;;;;;5006276;28;20064;-69
2023/11/03 08:10:59;;;;;;;8.02;1.10;;;11.30;99.90;;;;;;5009511;28;20044;-69
2023/11/03 08:13:27;;;;;;;3.53;0.68;;;11.30;99.90;;;;;;5008557;28;20034;-69
2023/11/03 08:15:52;;;;;;;5.15;1.42;;;11.40;99.90;;;;;;5009050;28;20037;-69
2023/11/03 08:18:18;;;;;;;4.43;0.80;;;11.50;99.90;;;;;;5008780;28;20033;-69
2023/11/03 08:20:45;;;;;;;4.43;0.90;;;11.50;99.80;;;;;;5007840;28;20153;-69
2023/11/03 08:23:14;;;;;;;1.80;0.43;;;11.50;99.40;;;;;;5001970;28;20819;-69
2023/11/03 08:25:39;;;;;;;5.65;1.10;;;11.50;99.50;;;;;;5008330;28;20037;-69
2023/11/03 08:28:06;;;;;;;5.63;0.77;;;11.50;99.50;;;;;;5008337;28;20606;-69
2023/11/03 08:30:33;;;;;;;7.30;0.98;;;11.60;99.60;;;;;;5008009;28;20132;-68
2023/11/03 08:32:59;;;;;;;2.45;0.60;;;11.60;99.40;;;;;;5005957;28;20045;-68
2023/11/03 08:35:26;;;;;;;6.00;1.27;;;11.70;99.20;;;;;;5008689;28;20092;-70
2023/11/03 08:37:53;;;;;;;2.03;0.73;;;11.70;99.30;;;;;;5008426;28;20285;-69
2023/11/03 08:40:22;;;;;;;4.97;1.27;;;11.80;99.20;;;;;;5008235;28;20034;-69
2023/11/03 08:42:49;;;;;;;2.20;0.60;;;11.90;99.00;;;;;;5007943;28;20050;-69
2023/11/03 08:45:16;;;;;;;3.35;0.80;;;11.80;99.00;;;;;;5008225;28;20045;-68
2023/11/03 08:47:41;;;;;;;4.57;0.82;;;11.80;99.00;;;;;;5008494;28;20205;-69
2023/11/03 08:50:09;;;;;;;4.28;1.02;;;11.80;99.00;;;;;;5007935;28;20037;-69
2023/11/03 08:52:35;;;;;;;4.60;0.77;;;11.90;99.10;;;;;;5007653;28;20069;-69
2023/11/03 08:55:06;;;;;;;5.45;0.95;;;12.00;98.60;;;;;;5006698;28;20045;-65
2023/11/03 08:57:39;;;;;;;6.60;1.00;;;12.10;98.70;;;;;;5008201;28;20061;-69
2023/11/03 09:00:15;;;;;;;4.80;0.82;;;12.10;98.20;;;;;;5001683;28;20131;-70
2023/11/03 09:02:44;;;;;;;6.30;0.65;;;12.30;98.10;;;;;;5007921;28;20124;-69
2023/11/03 09:05:11;;;;;;;3.22;0.52;;;12.30;98.00;;;;;;5008249;28;20410;-69
2023/11/03 09:07:38;;;;;;;4.45;0.90;;;12.30;97.90;;;;;;5005862;28;20107;-70
2023/11/03 09:10:09;;;;;;;5.68;0.82;;;12.40;98.20;;;;;;5007606;28;20061;-70
2023/11/03 09:12:36;;;;;;;2.75;0.80;;;12.40;98.00;;;;;;5007709;28;20034;-69
2023/11/03 09:15:04;;;;;;;4.38;1.13;;;12.70;97.40;;;;;;5007483;28;20041;-69
2023/11/03 09:17:33;;;;;;;3.53;0.98;;;12.90;97.00;;;;;;5007119;28;20545;-70
2023/11/03 09:20:00;;;;;;;5.93;1.15;;;13.00;96.90;;;;;;5007075;28;20061;-69
2023/11/03 09:22:29;;;;;;;3.85;1.63;;;13.20;96.50;;;;;;5007598;28;20030;-70
2023/11/03 09:24:56;;;;;;;4.32;0.82;;;13.10;96.00;;;;;;4999774;28;20573;-70
2023/11/03 09:27:25;;;;;;;1.95;0.70;;;13.10;96.10;;;;;;5007416;28;20150;-70
2023/11/03 09:29:51;;;;;;;2.63;1.15;;;13.00;95.90;;;;;;5007037;28;20104;-69
2023/11/03 09:32:17;;;;;;;3.25;1.08;;;13.00;96.40;;;;;;5007964;28;20038;-69
2023/11/03 09:34:46;;;;;;;3.20;0.80;;;13.20;96.90;;;;;;5007095;28;20034;-68
2023/11/03 09:37:15;;;;;;;3.22;1.08;;;13.40;96.30;;;;;;5007497;28;20394;-69
2023/11/03 09:39:42;;;;;;;6.32;1.05;;;13.50;95.70;;;;;;5006334;28;20033;-69
2023/11/03 09:42:11;;;;;;;4.65;1.23;;;13.60;95.30;;;;;;5006838;28;20018;-69
2023/11/03 09:44:37;;;;;;;3.47;1.52;;;13.60;95.80;;;;;;5006583;28;20041;-69
2023/11/03 09:47:08;;;;;;;10.35;1.20;;;13.50;95.40;;;;;;5006975;28;20072;-69
2023/11/03 09:49:35;;;;;;;63.90;28.10;;;13.50;95.70;;;;;;5003404;28;20042;-69
2023/11/03 09:52:05;;;;;;;8.13;3.70;;;13.60;95.50;;;;;;5006766;28;20030;-69
2023/11/03 09:54:33;;;;;;;21.67;7.28;;;13.60;95.30;;;;;;5005421;28;20080;-69
2023/11/03 09:57:02;;;;;;;21.67;7.03;;;13.60;95.20;;;;;;5007110;28;20037;-70
2023/11/03 09:59:34;;;;;;;5.85;1.58;;;13.60;95.20;;;;;;5006641;28;20034;-68
2023/11/03 10:02:11;;;;;;;3.97;1.40;;;13.60;94.60;;;;;;5006825;28;20030;-69
2023/11/03 10:04:41;;;;;;;4.95;1.50;;;13.40;94.40;;;;;;5006070;28;20540;-69
2023/11/03 10:07:11;;;;;;;4.00;0.95;;;13.40;94.90;;;;;;5006245;28;20029;-70
2023/11/03 10:09:37;;;;;;;4.80;1.15;;;13.40;94.80;;;;;;5006859;28;20060;-70
2023/11/03 10:12:15;;;;;;;1.90;0.77;;;13.40;95.20;;;;;;5004753;28;20556;-70
2023/11/03 10:14:41;;;;;;;5.03;1.00;;;13.50;95.10;;;;;;5004729;28;20778;-70
2023/11/03 10:17:11;;;;;;;3.05;1.00;;;13.50;95.30;;;;;;5002730;28;20041;-70
2023/11/03 10:19:37;;;;;;;2.28;0.77;;;13.60;94.80;;;;;;5006606;28;20030;-70
2023/11/03 10:22:09;;;;;;;5.88;0.90;;;13.60;94.70;;;;;;5004740;28;20065;-70
2023/11/03 10:24:36;;;;;;;6.28;1.20;;;13.70;94.40;;;;;;5006071;28;20034;-70
2023/11/03 10:27:02;;;;;;;4.93;1.42;;;13.80;94.40;;;;;;5005906;28;20485;-70
2023/11/03 10:29:29;;;;;;;2.03;0.95;;;13.80;94.40;;;;;;5005543;28;20034;-72
2023/11/03 10:31:55;;;;;;;5.20;0.95;;;13.90;94.50;;;;;;5006179;28;20033;-69
2023/11/03 10:34:22;;;;;;;4.28;0.80;;;13.80;94.30;;;;;;5006462;28;20394;-70
2023/11/03 10:36:50;;;;;;;3.22;0.70;;;13.80;94.90;;;;;;5005927;28;20030;-70
2023/11/03 10:39:17;;;;;;;2.03;0.70;;;13.90;94.60;;;;;;5005943;28;20030;-70
2023/11/03 10:41:44;;;;;;;4.50;1.63;;;13.90;94.90;;;;;;5001114;28;20065;-70
2023/11/03 10:44:15;;;;;;;5.28;0.80;;;14.00;94.80;;;;;;5002920;28;20089;-70
2023/11/03 10:46:51;;;;;;;5.30;1.55;;;14.10;94.60;;;;;;5001239;28;20561;-70
2023/11/03 10:49:29;;;;;;;5.75;1.23;;;14.00;94.10;;;;;;4998887;28;20042;-70
2023/11/03 10:52:07;;;;;;;3.65;0.80;;;14.00;94.90;;;;;;5000958;28;20073;-70
2023/11/03 10:54:56;;;;;;;4.10;0.90;;;14.00;94.40;;;;;;4998608;28;20046;-70
2023/11/03 10:57:22;;;;;;;4.25;0.90;;;14.00;94.80;;;;;;5000960;28;20271;-67
2023/11/03 10:59:56;;;;;;;3.45;1.00;;;14.00;94.90;;;;;;5005353;28;20046;-68
2023/11/03 11:02:36;;;;;;;3.20;0.88;;;14.10;95.00;;;;;;4997793;28;20041;-68
2023/11/03 11:05:15;;;;;;;4.80;1.08;;;14.10;94.60;;;;;;4998987;28;20037;-68
2023/11/03 11:07:46;;;;;;;3.40;0.90;;;14.10;94.30;;;;;;4998789;28;20491;-68
2023/11/03 11:10:13;;;;;;;3.50;0.80;;;14.10;94.10;;;;;;4998125;28;20030;-68
2023/11/03 11:12:49;;;;;;;4.88;0.93;;;14.10;94.30;;;;;;4998099;28;20038;-68
2023/11/03 11:15:18;;;;;;;4.88;1.65;;;14.10;94.30;;;;;;5000832;28;20111;-69
2023/11/03 11:17:45;;;;;;;4.68;1.15;;;14.10;94.50;;;;;;4999156;28;20034;-68
2023/11/03 11:20:16;;;;;;;5.47;1.80;;;14.10;94.00;;;;;;4997333;28;20037;-68
2023/11/03 11:22:47;;;;;;;5.70;2.42;;;14.10;93.90;;;;;;4998641;28;20038;-68
2023/11/03 11:25:14;;;;;;;7.15;2.38;;;14.00;94.20;;;;;;4997345;28;20038;-69
2023/11/03 11:27:48;;;;;;;2.47;1.00;;;14.00;93.70;;;;;;5003400;28;20126;-69
2023/11/03 11:30:17;;;;;;;4.28;1.30;;;14.00;94.00;;;;;;5000239;28;20120;-69
2023/11/03 11:32:53;;;;;;;4.45;1.52;;;14.00;94.40;;;;;;5002493;28;20781;-70
2023/11/03 11:35:20;;;;;;;7.85;3.65;;;14.00;94.20;;;;;;4997237;28;20030;-69
2023/11/03 11:37:47;;;;;;;10.45;4.53;;;14.00;94.40;;;;;;5000136;28;20438;-69
2023/11/03 11:40:13;;;;;;;5.10;2.83;;;14.10;94.40;;;;;;5001616;28;20061;-68
2023/11/03 11:42:43;;;;;;;5.45;1.77;;;14.10;93.80;;;;;;4999087;28;20125;-68
2023/11/03 11:45:18;;;;;;;12.70;2.58;;;14.10;93.80;;;;;;5001735;28;20399;-68
2023/11/03 11:47:47;;;;;;;5.95;2.50;;;14.00;94.20;;;;;;5003858;28;20069;-67
2023/11/03 11:50:16;;;;;;;10.90;3.63;;;13.90;93.90;;;;;;5000762;28;20041;-68
2023/11/03 11:52:48;;;;;;;8.95;3.95;;;13.80;93.90;;;;;;5003349;28;20068;-68
2023/11/03 11:55:14;;;;;;;7.95;2.97;;;13.80;94.30;;;;;;4997708;28;20034;-68
2023/11/03 11:57:43;;;;;;;5.50;1.63;;;13.80;94.60;;;;;;4999676;28;20041;-68
2023/11/03 12:00:12;;;;;;;5.90;1.95;;;13.70;94.20;;;;;;5005043;28;20141;-68
2023/11/03 12:02:39;;;;;;;3.65;1.30;;;13.60;94.40;;;;;;5000656;28;20096;-68
2023/11/03 12:05:06;;;;;;;4.13;1.98;;;13.60;94.90;;;;;;5002623;28;20034;-68
2023/11/03 12:07:33;;;;;;;3.42;0.90;;;13.60;94.60;;;;;;5001282;28;20037;-68
2023/11/03 12:09:59;;;;;;;3.53;0.77;;;13.50;94.50;;;;;;5004488;28;20026;-68
2023/11/03 12:12:26;;;;;;;3.88;0.70;;;13.50;94.80;;;;;;5000558;28;20034;-68
2023/11/03 12:14:52;;;;;;;6.40;1.20;;;13.60;94.70;;;;;;5004594;28;20030;-68
2023/11/03 12:17:22;;;;;;;5.53;1.30;;;13.60;94.90;;;;;;5000983;28;20038;-68
2023/11/03 12:19:49;;;;;;;3.40;0.90;;;13.60;95.00;;;;;;5003104;28;20129;-67
2023/11/03 12:22:26;;;;;;;3.10;1.35;;;13.70;94.80;;;;;;4999770;28;20034;-68
2023/11/03 12:24:55;;;;;;;5.18;1.05;;;13.80;94.70;;;;;;5001933;28;20732;-68
2023/11/03 12:27:22;;;;;;;5.55;0.80;;;13.90;94.60;;;;;;5000670;28;20747;-68
2023/11/03 12:29:48;;;;;;;7.10;2.33;;;14.00;94.70;;;;;;5003811;28;20112;-68
2023/11/03 12:32:14;;;;;;;5.47;0.88;;;14.10;94.20;;;;;;4998864;28;20434;-68
2023/11/03 12:34:44;;;;;;;4.03;1.10;;;14.20;93.60;;;;;;5003357;28;20034;-68
2023/11/03 12:37:12;;;;;;;3.38;0.70;;;14.20;93.90;;;;;;4996096;28;20402;-68
2023/11/03 12:39:47;;;;;;;9.25;1.88;;;14.20;94.30;;;;;;5001782;28;20034;-68
2023/11/03 12:42:13;;;;;;;1.75;1.17;;;14.30;94.10;;;;;;5001556;28;20037;-68
2023/11/03 12:44:48;;;;;;;5.18;1.13;;;14.40;93.60;;;;;;5003602;28;20026;-68